X  Close Metar Aviation Weather Data     KILM Wilmington International Airport
Temperature
66°F Temperature
41°F Dewpoint
40% Humidity



Wind
9 MPH
14 KM/H
4 M/S
8 KTS



170°
S
Current Conditions

Clear Clear
Pressure 1027.42 (hPa) - 30.34 (inHg)
Visibility 10 (mile) - 16.1 (km)
Airport
Airport-code KILM

Location: Wilmington International Airport
Distance: 10 (mi)

Metar:
KILM 071853Z 17008KT 10SM CLR 19/05 A3034 RMK AO2 SLP272 T01890050

Time: 2023-02-07 13:53 EST